createdAt,value
2017-03-20T00:00:16.600Z,1001.59
2017-03-20T00:00:57.250Z,1001.57
2017-03-20T00:01:37.901Z,1001.61
2017-03-20T00:02:19.581Z,1001.59
2017-03-20T00:03:00.233Z,1001.6
2017-03-20T00:03:40.891Z,1001.55
2017-03-20T00:04:21.454Z,1001.57
2017-03-20T00:05:02.066Z,1001.61
2017-03-20T00:05:42.749Z,1001.56
2017-03-20T00:06:24.419Z,1001.59
2017-03-20T00:07:04.982Z,1001.64
2017-03-20T00:07:45.573Z,1001.6
2017-03-20T00:08:26.168Z,1001.58
2017-03-20T00:09:06.825Z,1001.61
2017-03-20T00:09:47.480Z,1001.59
2017-03-20T00:10:28.133Z,1001.69
2017-03-20T00:11:08.801Z,1001.59
2017-03-20T00:11:49.438Z,1001.6
2017-03-20T00:12:30.091Z,1001.6
2017-03-20T00:13:10.743Z,1001.65
2017-03-20T00:13:51.399Z,1001.58
2017-03-20T00:14:31.975Z,1001.58
2017-03-20T00:15:12.565Z,1001.57
2017-03-20T00:15:53.162Z,1001.58
2017-03-20T00:16:33.804Z,1001.56
2017-03-20T00:17:14.374Z,1001.6
2017-03-20T00:17:54.957Z,1001.56
2017-03-20T00:18:35.559Z,1001.59
2017-03-20T00:19:16.211Z,1001.63
2017-03-20T00:19:56.867Z,1001.6
2017-03-20T00:20:37.528Z,1001.59
2017-03-20T00:21:18.176Z,1001.6
2017-03-20T00:21:58.829Z,1001.59
2017-03-20T00:22:39.479Z,1001.6
2017-03-20T00:23:20.132Z,1001.56
2017-03-20T00:24:00.784Z,1001.59
2017-03-20T00:24:41.340Z,1001.59
2017-03-20T00:25:21.934Z,1001.62
2017-03-20T00:26:02.538Z,1001.62
2017-03-20T00:26:43.190Z,1001.57
2017-03-20T00:27:23.746Z,1001.57
2017-03-20T00:28:04.341Z,1001.55
2017-03-20T00:28:44.956Z,1001.54
2017-03-20T00:29:26.620Z,1001.54
2017-03-20T00:30:07.179Z,1001.62
2017-03-20T00:30:47.773Z,1001.59
2017-03-20T00:31:28.377Z,1001.58
2017-03-20T00:32:09.029Z,1001.59
2017-03-20T00:32:49.602Z,1001.52
2017-03-20T00:33:30.182Z,1001.52
2017-03-20T00:34:10.782Z,1001.52
2017-03-20T00:34:52.460Z,1001.51
2017-03-20T00:35:33.035Z,1001.54
2017-03-20T00:36:13.614Z,1001.55
2017-03-20T00:36:54.213Z,1001.56
2017-03-20T00:37:34.863Z,1001.52
2017-03-20T00:38:15.450Z,1001.56
2017-03-20T00:38:56.115Z,1001.6
2017-03-20T00:39:37.742Z,1001.61
2017-03-20T00:40:18.422Z,1001.55
2017-03-20T00:40:59.052Z,1001.56
2017-03-20T00:41:39.709Z,1001.55
2017-03-20T00:42:21.385Z,1001.55
2017-03-20T00:43:02.038Z,1001.54
2017-03-20T00:43:42.683Z,1001.55
2017-03-20T00:44:23.341Z,1001.59
2017-03-20T00:45:03.992Z,1001.52
2017-03-20T00:45:44.652Z,1001.52
2017-03-20T00:46:25.218Z,1001.57
2017-03-20T00:47:05.799Z,1001.52
2017-03-20T00:47:46.405Z,1001.54
2017-03-20T00:48:27.052Z,1001.52
2017-03-20T00:49:07.711Z,1001.53
2017-03-20T00:49:48.360Z,1001.51
2017-03-20T00:50:29.016Z,1001.55
2017-03-20T00:51:09.663Z,1001.52
2017-03-20T00:51:51.346Z,1001.53
2017-03-20T00:52:31.991Z,1001.49
2017-03-20T00:53:12.650Z,1001.49
2017-03-20T00:53:53.320Z,1001.51
2017-03-20T00:54:33.871Z,1001.51
2017-03-20T00:55:14.501Z,1001.51
2017-03-20T00:55:56.185Z,1001.46
2017-03-20T00:56:36.750Z,1001.54
2017-03-20T00:57:17.388Z,1001.51
2017-03-20T00:57:58.037Z,1001.51
2017-03-20T00:58:38.594Z,1001.51
2017-03-20T00:59:19.244Z,1001.5
2017-03-20T00:59:59.898Z,1001.44
2017-03-20T01:00:40.549Z,1001.5
2017-03-20T01:01:22.228Z,1001.5
2017-03-20T01:02:02.873Z,1001.51
2017-03-20T01:02:43.533Z,1001.47
2017-03-20T01:03:25.212Z,1001.47
2017-03-20T01:04:05.865Z,1001.48
2017-03-20T01:04:46.513Z,1001.5
2017-03-20T01:05:27.171Z,1001.51
2017-03-20T01:06:07.819Z,1001.5
2017-03-20T01:06:48.468Z,1001.5
2017-03-20T01:07:29.129Z,1001.51
2017-03-20T01:08:10.697Z,1001.49
2017-03-20T01:08:51.350Z,1001.46
2017-03-20T01:09:33.953Z,1001.51
2017-03-20T01:10:14.602Z,1001.48
2017-03-20T01:10:55.261Z,1001.47
2017-03-20T01:11:36.937Z,1001.43
2017-03-20T01:12:17.590Z,1001.48
2017-03-20T01:12:58.243Z,1001.47
2017-03-20T01:13:38.895Z,1001.47
2017-03-20T01:14:20.471Z,1001.45
2017-03-20T01:15:01.124Z,1001.44
2017-03-20T01:15:41.772Z,1001.44
2017-03-20T01:16:22.423Z,1001.4
2017-03-20T01:17:03.085Z,1001.38
2017-03-20T01:17:43.731Z,1001.39
2017-03-20T01:18:25.411Z,1001.38
2017-03-20T01:19:06.068Z,1001.39
2017-03-20T01:19:46.644Z,1001.41
2017-03-20T01:20:27.195Z,1001.37
2017-03-20T01:21:07.858Z,1001.34
2017-03-20T01:21:48.398Z,1001.36
2017-03-20T01:22:29.016Z,1001.33
2017-03-20T01:23:09.673Z,1001.33
2017-03-20T01:23:50.254Z,1001.36
2017-03-20T01:24:30.878Z,1001.34
2017-03-20T01:25:13.502Z,1001.33
2017-03-20T01:25:54.130Z,1001.27
2017-03-20T01:26:35.809Z,1001.32
2017-03-20T01:27:16.464Z,1001.29
2017-03-20T01:27:57.110Z,1001.32
2017-03-20T01:28:37.771Z,1001.34
2017-03-20T01:29:18.419Z,1001.31
2017-03-20T01:29:59.081Z,1001.31
2017-03-20T01:30:39.735Z,1001.34
2017-03-20T01:31:20.387Z,1001.32
2017-03-20T01:32:01.032Z,1001.35
2017-03-20T01:32:41.683Z,1001.34
2017-03-20T01:33:22.329Z,1001.31
2017-03-20T01:34:04.931Z,1001.28
2017-03-20T01:34:47.636Z,1001.32
2017-03-20T01:35:28.297Z,1001.26
2017-03-20T01:36:08.882Z,1001.32
2017-03-20T01:36:49.546Z,1001.28
2017-03-20T01:37:30.146Z,1001.32
2017-03-20T01:38:10.799Z,1001.27
2017-03-20T01:38:51.359Z,1001.4
2017-03-20T01:39:31.953Z,1001.29
2017-03-20T01:40:12.545Z,1001.29
2017-03-20T01:40:53.215Z,1001.28
2017-03-20T01:41:33.861Z,1001.27
2017-03-20T01:42:14.521Z,1001.29
2017-03-20T01:42:56.195Z,1001.24
2017-03-20T01:43:36.852Z,1001.29
2017-03-20T01:44:17.499Z,1001.33
2017-03-20T01:44:58.055Z,1001.31
2017-03-20T01:45:38.653Z,1001.25
2017-03-20T01:46:19.256Z,1001.26
2017-03-20T01:46:59.908Z,1001.24
2017-03-20T01:47:40.490Z,1001.3
2017-03-20T01:48:21.153Z,1001.29
2017-03-20T01:49:01.782Z,1001.31
2017-03-20T01:49:42.419Z,1001.32
2017-03-20T01:50:23.073Z,1001.33
2017-03-20T01:51:03.715Z,1001.35
2017-03-20T01:51:44.380Z,1001.31
2017-03-20T01:52:25.027Z,1001.3
2017-03-20T01:53:05.672Z,1001.35
2017-03-20T01:53:46.339Z,1001.29
2017-03-20T01:54:26.987Z,1001.33
2017-03-20T01:55:07.630Z,1001.32
2017-03-20T01:55:48.293Z,1001.4
2017-03-20T01:56:28.949Z,1001.38
2017-03-20T01:57:09.602Z,1001.31
2017-03-20T01:57:50.251Z,1001.37
2017-03-20T01:58:30.900Z,1001.34
2017-03-20T01:59:11.561Z,1001.33
2017-03-20T01:59:52.206Z,1001.34
2017-03-20T02:00:32.864Z,1001.29
2017-03-20T02:01:13.516Z,1001.31
2017-03-20T02:01:54.167Z,1001.33
2017-03-20T02:02:34.826Z,1001.28
2017-03-20T02:03:15.475Z,1001.25
2017-03-20T02:03:56.127Z,1001.24
2017-03-20T02:04:36.683Z,1001.27
2017-03-20T02:05:17.296Z,1001.28
2017-03-20T02:05:57.890Z,1001.27
2017-03-20T02:06:38.535Z,1001.34
2017-03-20T02:07:19.099Z,1001.23
2017-03-20T02:08:00.707Z,1001.28
2017-03-20T02:08:41.314Z,1001.27
2017-03-20T02:09:21.963Z,1001.26
2017-03-20T02:10:02.523Z,1001.35
2017-03-20T02:10:43.104Z,1001.25
2017-03-20T02:11:23.701Z,1001.22
2017-03-20T02:12:04.371Z,1001.23
2017-03-20T02:12:44.944Z,1001.2
2017-03-20T02:13:25.629Z,1001.23
2017-03-20T02:14:06.231Z,1001.23
2017-03-20T02:14:46.881Z,1001.21
2017-03-20T02:15:27.532Z,1001.23
2017-03-20T02:16:08.184Z,1001.23
2017-03-20T02:16:49.758Z,1001.25
2017-03-20T02:17:30.413Z,1001.2
2017-03-20T02:18:11.068Z,1001.25
2017-03-20T02:18:51.757Z,1001.25
2017-03-20T02:19:32.372Z,1001.32
2017-03-20T02:20:12.931Z,1001.26
2017-03-20T02:20:53.524Z,1001.27
2017-03-20T02:21:34.122Z,1001.26
2017-03-20T02:22:14.808Z,1001.23
2017-03-20T02:22:55.365Z,1001.27
2017-03-20T02:23:36.049Z,1001.24
2017-03-20T02:24:16.632Z,1001.32
2017-03-20T02:24:57.289Z,1001.24
2017-03-20T02:25:37.867Z,1001.3
2017-03-20T02:26:18.495Z,1001.28
2017-03-20T02:26:59.146Z,1001.33
2017-03-20T02:27:39.719Z,1001.3
2017-03-20T02:28:20.347Z,1001.29
2017-03-20T02:29:01.008Z,1001.31
2017-03-20T02:29:41.574Z,1001.32
2017-03-20T02:30:22.201Z,1001.3
2017-03-20T02:31:03.784Z,1001.28
2017-03-20T02:31:44.338Z,1001.29
2017-03-20T02:32:24.937Z,1001.28
2017-03-20T02:33:05.539Z,1001.3
2017-03-20T02:33:46.191Z,1001.3
2017-03-20T02:34:26.733Z,1001.28
2017-03-20T02:35:07.341Z,1001.29
2017-03-20T02:35:48.025Z,1001.34
2017-03-20T02:36:28.662Z,1001.23
2017-03-20T02:37:09.311Z,1001.24
2017-03-20T02:37:49.972Z,1001.3
2017-03-20T02:38:30.613Z,1001.31
2017-03-20T02:39:11.259Z,1001.24
2017-03-20T02:39:51.933Z,1001.26
2017-03-20T02:40:32.562Z,1001.33
2017-03-20T02:41:15.162Z,1001.32
2017-03-20T02:41:55.836Z,1001.33
2017-03-20T02:42:36.466Z,1001.36
2017-03-20T02:43:17.124Z,1001.45
2017-03-20T02:44:02.688Z,1001.41
2017-03-20T02:44:43.395Z,1001.34
2017-03-20T02:45:24.003Z,1001.33
2017-03-20T02:46:04.654Z,1001.35
2017-03-20T02:46:45.301Z,1001.33
2017-03-20T02:47:25.954Z,1001.39
2017-03-20T02:48:06.607Z,1001.36
2017-03-20T02:48:47.275Z,1001.33
2017-03-20T02:49:27.931Z,1001.31
2017-03-20T02:50:08.581Z,1001.29
2017-03-20T02:50:49.165Z,1001.29
2017-03-20T02:51:29.814Z,1001.28
2017-03-20T02:52:10.386Z,1001.38
2017-03-20T02:52:50.974Z,1001.31
2017-03-20T02:53:33.628Z,1001.27
2017-03-20T02:54:14.306Z,1001.3
2017-03-20T02:54:54.860Z,1001.31
2017-03-20T02:55:35.530Z,1001.32
2017-03-20T02:56:16.130Z,1001.3
2017-03-20T02:56:56.787Z,1001.3
2017-03-20T02:57:37.362Z,1001.29
2017-03-20T02:58:17.967Z,1001.26
2017-03-20T02:58:58.663Z,1001.25
2017-03-20T02:59:39.301Z,1001.25
2017-03-20T03:00:19.941Z,1001.21
2017-03-20T03:01:00.601Z,1001.2
2017-03-20T03:01:41.349Z,1001.22
2017-03-20T03:02:24.187Z,1001.22
2017-03-20T03:03:04.838Z,1001.17
2017-03-20T03:03:46.609Z,1001.2
2017-03-20T03:04:27.305Z,1001.19
2017-03-20T03:05:07.900Z,1001.19
2017-03-20T03:05:48.555Z,1001.2
2017-03-20T03:06:29.206Z,1001.23
2017-03-20T03:07:09.859Z,1001.2
2017-03-20T03:07:50.509Z,1001.22
2017-03-20T03:08:31.156Z,1001.25
2017-03-20T03:09:11.809Z,1001.26
2017-03-20T03:09:52.475Z,1001.26
2017-03-20T03:10:33.119Z,1001.26
2017-03-20T03:11:13.783Z,1001.25
2017-03-20T03:11:54.427Z,1001.27
2017-03-20T03:12:35.080Z,1001.27
2017-03-20T03:13:15.734Z,1001.23
2017-03-20T03:13:56.384Z,1001.26
2017-03-20T03:14:37.040Z,1001.27
2017-03-20T03:15:17.613Z,1001.25
2017-03-20T03:15:58.242Z,1001.28
2017-03-20T03:16:38.896Z,1001.24
2017-03-20T03:17:19.470Z,1001.26
2017-03-20T03:18:00.084Z,1001.27
2017-03-20T03:18:40.753Z,1001.25
2017-03-20T03:19:27.899Z,1001.28
2017-03-20T03:20:08.840Z,1001.29
2017-03-20T03:20:49.475Z,1001.22
2017-03-20T03:21:32.166Z,1001.27
2017-03-20T03:22:12.745Z,1001.3
2017-03-20T03:22:53.422Z,1001.28
2017-03-20T03:23:35.053Z,1001.26
2017-03-20T03:24:15.704Z,1001.28
2017-03-20T03:24:56.322Z,1001.28
2017-03-20T03:25:36.969Z,1001.31
2017-03-20T03:26:17.561Z,1001.3
2017-03-20T03:26:58.215Z,1001.3
2017-03-20T03:27:38.772Z,1001.24
2017-03-20T03:28:19.382Z,1001.24
2017-03-20T03:28:59.968Z,1001.25
2017-03-20T03:29:40.620Z,1001.27
2017-03-20T03:30:21.285Z,1001.28
2017-03-20T03:31:02.911Z,1001.26
2017-03-20T03:31:43.496Z,1001.26
2017-03-20T03:32:24.158Z,1001.21
2017-03-20T03:33:04.706Z,1001.29
2017-03-20T03:33:45.315Z,1001.19
2017-03-20T03:34:25.922Z,1001.2
2017-03-20T03:35:06.558Z,1001.26
2017-03-20T03:35:48.239Z,1001.3
2017-03-20T03:36:28.907Z,1001.22
2017-03-20T03:37:09.546Z,1001.23
2017-03-20T03:37:54.805Z,1001.26
2017-03-20T03:38:37.413Z,1001.19
2017-03-20T03:39:18.056Z,1001.18
2017-03-20T03:39:58.713Z,1001.17
2017-03-20T03:40:39.365Z,1001.19
2017-03-20T03:41:20.013Z,1001.18
2017-03-20T03:42:00.665Z,1001.17
2017-03-20T03:42:41.323Z,1001.18
2017-03-20T03:43:21.974Z,1001.16
2017-03-20T03:44:02.626Z,1001.18
2017-03-20T03:44:43.286Z,1001.3
2017-03-20T03:45:23.861Z,1001.19
2017-03-20T03:46:04.486Z,1001.22
2017-03-20T03:46:45.133Z,1001.27
2017-03-20T03:47:25.710Z,1001.25
2017-03-20T03:48:06.340Z,1001.24
2017-03-20T03:48:46.992Z,1001.21
2017-03-20T03:49:27.544Z,1001.19
2017-03-20T03:50:08.188Z,1001.29
2017-03-20T03:50:48.853Z,1001.25
2017-03-20T03:51:29.501Z,1001.24
2017-03-20T03:52:10.158Z,1001.26
2017-03-20T03:52:50.811Z,1001.22
2017-03-20T03:53:31.464Z,1001.23
2017-03-20T03:54:12.119Z,1001.19
2017-03-20T03:54:52.770Z,1001.23
2017-03-20T03:55:33.421Z,1001.17
2017-03-20T03:56:14.073Z,1001.22
2017-03-20T03:56:54.726Z,1001.2
2017-03-20T03:57:35.377Z,1001.18
2017-03-20T03:58:18.106Z,1001.2
2017-03-20T03:58:58.739Z,1001.13
2017-03-20T03:59:40.405Z,1001.1
2017-03-20T04:00:25.889Z,1001.13
2017-03-20T04:01:08.602Z,1001.09
2017-03-20T04:01:49.226Z,1001.08
2017-03-20T04:02:30.803Z,1001.1
2017-03-20T04:03:11.456Z,1001.07
2017-03-20T04:03:52.143Z,1001.07
2017-03-20T04:04:34.808Z,1001.05
2017-03-20T04:05:15.366Z,1001
2017-03-20T04:05:55.979Z,1001.01
2017-03-20T04:06:36.562Z,1001
2017-03-20T04:07:17.217Z,1001
2017-03-20T04:07:57.794Z,1001.06
2017-03-20T04:08:39.396Z,1001.02
2017-03-20T04:09:19.996Z,1001.06
2017-03-20T04:10:00.646Z,1001.03
2017-03-20T04:10:41.213Z,1001
2017-03-20T04:11:21.846Z,1001
2017-03-20T04:12:02.506Z,1001.04
2017-03-20T04:12:43.081Z,1000.99
2017-03-20T04:13:23.706Z,1001.02
2017-03-20T04:14:05.284Z,1000.96
2017-03-20T04:14:45.861Z,1000.95
2017-03-20T04:15:26.484Z,1000.99
2017-03-20T04:16:07.146Z,1000.97
2017-03-20T04:16:47.792Z,1000.97
2017-03-20T04:17:28.444Z,1000.92
2017-03-20T04:18:09.098Z,1000.95
2017-03-20T04:18:49.749Z,1000.95
2017-03-20T04:19:30.407Z,1000.93
2017-03-20T04:20:10.979Z,1000.99
2017-03-20T04:20:51.559Z,1001
2017-03-20T04:21:32.157Z,1001
2017-03-20T04:22:12.810Z,1000.94
2017-03-20T04:22:53.393Z,1001
2017-03-20T04:23:34.065Z,1001.07
2017-03-20T04:24:14.661Z,1001.08
2017-03-20T04:24:55.319Z,1001.02
2017-03-20T04:25:35.888Z,1001.07
2017-03-20T04:26:16.492Z,1001.08
2017-03-20T04:26:58.093Z,1001.14
2017-03-20T04:27:39.777Z,1001.11
2017-03-20T04:28:20.356Z,1001.19
2017-03-20T04:29:00.921Z,1001.12
2017-03-20T04:29:41.537Z,1001.15
2017-03-20T04:30:23.206Z,1001.13
2017-03-20T04:31:03.775Z,1001.19
2017-03-20T04:31:44.360Z,1001.16
2017-03-20T04:32:24.961Z,1001.16
2017-03-20T04:33:05.610Z,1001.15
2017-03-20T04:33:46.213Z,1001.15
2017-03-20T04:34:26.769Z,1001.18
2017-03-20T04:35:07.356Z,1001.15
2017-03-20T04:35:48.058Z,1001.13
2017-03-20T04:36:28.598Z,1001.21
2017-03-20T04:37:09.227Z,1001.24
2017-03-20T04:37:49.879Z,1001.22
2017-03-20T04:38:30.451Z,1001.24
2017-03-20T04:39:11.077Z,1001.17
2017-03-20T04:39:51.732Z,1001.29
2017-03-20T04:40:32.305Z,1001.24
2017-03-20T04:41:12.888Z,1001.19
2017-03-20T04:41:53.589Z,1001.22
2017-03-20T04:42:34.244Z,1001.18
2017-03-20T04:43:14.839Z,1001.22
2017-03-20T04:43:55.500Z,1001.21
2017-03-20T04:44:36.098Z,1001.18
2017-03-20T04:45:16.771Z,1001.22
2017-03-20T04:45:57.335Z,1001.22
2017-03-20T04:46:38.923Z,1001.2
2017-03-20T04:47:19.518Z,1001.25
2017-03-20T04:48:00.180Z,1001.26
2017-03-20T04:48:40.749Z,1001.26
2017-03-20T04:49:21.341Z,1001.19
2017-03-20T04:50:01.936Z,1001.19
2017-03-20T04:50:42.582Z,1001.16
2017-03-20T04:51:23.254Z,1001.12
2017-03-20T04:52:03.900Z,1001.14
2017-03-20T04:52:44.548Z,1001.16
2017-03-20T04:53:27.161Z,1001.14
2017-03-20T04:54:08.819Z,1001.11
2017-03-20T04:54:49.490Z,1001.15
2017-03-20T04:55:30.136Z,1001.18
2017-03-20T04:56:11.800Z,1001.18
2017-03-20T04:56:52.458Z,1001.21
2017-03-20T04:57:33.128Z,1001.19
2017-03-20T04:58:13.782Z,1001.18
2017-03-20T04:58:54.422Z,1001.23
2017-03-20T04:59:35.099Z,1001.19
2017-03-20T05:00:15.731Z,1001.22
2017-03-20T05:00:56.375Z,1001.19
2017-03-20T05:01:36.943Z,1001.21
2017-03-20T05:02:17.586Z,1001.19
2017-03-20T05:02:58.236Z,1001.19
2017-03-20T05:03:38.824Z,1001.16
2017-03-20T05:04:19.433Z,1001.2
2017-03-20T05:05:00.096Z,1001.25
2017-03-20T05:05:40.741Z,1001.23
2017-03-20T05:06:21.398Z,1001.19
2017-03-20T05:07:02.052Z,1001.19
2017-03-20T05:07:43.727Z,1001.2
2017-03-20T05:08:24.380Z,1001.2
2017-03-20T05:09:05.036Z,1001.22
2017-03-20T05:09:45.690Z,1001.21
2017-03-20T05:10:28.298Z,1001.2
2017-03-20T05:11:08.933Z,1001.23
2017-03-20T05:11:49.593Z,1001.26
2017-03-20T05:12:30.246Z,1001.27
2017-03-20T05:13:10.898Z,1001.24
2017-03-20T05:13:52.476Z,1001.31
2017-03-20T05:14:33.122Z,1001.3
2017-03-20T05:15:14.828Z,1001.25
2017-03-20T05:15:55.454Z,1001.27
2017-03-20T05:16:38.058Z,1001.27
2017-03-20T05:17:18.708Z,1001.27
2017-03-20T05:18:00.385Z,1001.29
2017-03-20T05:18:41.037Z,1001.22
2017-03-20T05:19:21.691Z,1001.29
2017-03-20T05:20:02.341Z,1001.32
2017-03-20T05:20:43.000Z,1001.29
2017-03-20T05:21:23.651Z,1001.27
2017-03-20T05:22:04.304Z,1001.29
2017-03-20T05:22:44.956Z,1001.26
2017-03-20T05:23:25.607Z,1001.27
2017-03-20T05:24:06.268Z,1001.33
2017-03-20T05:24:47.947Z,1001.27
2017-03-20T05:25:28.593Z,1001.34
2017-03-20T05:26:11.189Z,1001.31
2017-03-20T05:26:52.868Z,1001.33
2017-03-20T05:27:33.522Z,1001.27
2017-03-20T05:28:15.204Z,1001.3
2017-03-20T05:28:55.855Z,1001.28
2017-03-20T05:29:38.553Z,1001.31
2017-03-20T05:30:19.207Z,1001.25
2017-03-20T05:31:00.886Z,1001.28
2017-03-20T05:31:41.538Z,1001.3
2017-03-20T05:32:22.207Z,1001.28
2017-03-20T05:33:02.845Z,1001.33
2017-03-20T05:33:43.498Z,1001.32
2017-03-20T05:34:24.153Z,1001.29
2017-03-20T05:35:04.803Z,1001.29
2017-03-20T05:35:45.390Z,1001.29
2017-03-20T05:36:26.019Z,1001.28
2017-03-20T05:37:06.661Z,1001.33
2017-03-20T05:37:47.234Z,1001.33
2017-03-20T05:38:28.901Z,1001.29
2017-03-20T05:39:09.540Z,1001.31
2017-03-20T05:39:50.130Z,1001.25
2017-03-20T05:40:32.806Z,1001.26
2017-03-20T05:41:13.419Z,1001.26
2017-03-20T05:41:53.993Z,1001.26
2017-03-20T05:42:34.651Z,1001.28
2017-03-20T05:43:17.269Z,1001.26
2017-03-20T05:43:58.929Z,1001.3
2017-03-20T05:44:39.584Z,1001.31
2017-03-20T05:45:20.221Z,1001.26
2017-03-20T05:46:01.910Z,1001.27
2017-03-20T05:46:43.587Z,1001.32
2017-03-20T05:47:24.239Z,1001.25
2017-03-20T05:48:04.876Z,1001.26
2017-03-20T05:48:46.461Z,1001.28
2017-03-20T05:49:28.148Z,1001.28
2017-03-20T05:50:09.812Z,1001.23
2017-03-20T05:50:50.479Z,1001.24
2017-03-20T05:51:31.051Z,1001.24
2017-03-20T05:52:12.646Z,1001.22
2017-03-20T05:52:53.245Z,1001.23
2017-03-20T05:53:38.811Z,1001.23
2017-03-20T05:54:19.373Z,1001.18
2017-03-20T05:55:00.992Z,1001.22
2017-03-20T05:55:41.592Z,1001.19
2017-03-20T05:56:23.171Z,1001.21
2017-03-20T05:57:03.741Z,1001.18
2017-03-20T05:57:46.387Z,1001.22
2017-03-20T05:58:26.982Z,1001.21
2017-03-20T05:59:08.645Z,1001.18
2017-03-20T05:59:49.213Z,1001.23
2017-03-20T06:00:29.847Z,1001.23
2017-03-20T06:01:10.507Z,1001.27
2017-03-20T06:01:52.181Z,1001.25
2017-03-20T06:02:32.838Z,1001.24
2017-03-20T06:03:14.403Z,1001.2
2017-03-20T06:03:55.060Z,1001.21
2017-03-20T06:04:35.712Z,1001.29
2017-03-20T06:05:16.395Z,1001.26
2017-03-20T06:05:57.027Z,1001.32
2017-03-20T06:06:37.680Z,1001.31
2017-03-20T06:07:18.329Z,1001.28
2017-03-20T06:07:59.087Z,1001.26
2017-03-20T06:08:39.771Z,1001.32
2017-03-20T06:09:20.402Z,1001.24
2017-03-20T06:10:01.043Z,1001.26
2017-03-20T06:10:41.608Z,1001.28
2017-03-20T06:11:22.207Z,1001.31
2017-03-20T06:12:02.810Z,1001.22
2017-03-20T06:12:43.459Z,1001.26
2017-03-20T06:13:24.030Z,1001.3
2017-03-20T06:14:04.607Z,1001.32
2017-03-20T06:14:45.302Z,1001.27
2017-03-20T06:15:25.966Z,1001.32
2017-03-20T06:16:06.618Z,1001.31
2017-03-20T06:16:47.274Z,1001.32
2017-03-20T06:17:27.926Z,1001.3
2017-03-20T06:18:08.578Z,1001.32
2017-03-20T06:18:49.226Z,1001.32
2017-03-20T06:19:29.884Z,1001.34
2017-03-20T06:20:10.491Z,1001.29
2017-03-20T06:20:51.082Z,1001.34
2017-03-20T06:21:31.740Z,1001.35
2017-03-20T06:22:13.549Z,1001.33
2017-03-20T06:22:54.226Z,1001.34
2017-03-20T06:23:34.824Z,1001.36
2017-03-20T06:24:15.394Z,1001.37
2017-03-20T06:24:56.033Z,1001.37
2017-03-20T06:25:36.685Z,1001.34
2017-03-20T06:26:17.252Z,1001.35
2017-03-20T06:26:57.835Z,1001.4
2017-03-20T06:27:38.434Z,1001.39
2017-03-20T06:28:19.087Z,1001.38
2017-03-20T06:28:59.653Z,1001.39
2017-03-20T06:29:40.415Z,1001.43
2017-03-20T06:30:21.130Z,1001.41
2017-03-20T06:31:01.802Z,1001.43
2017-03-20T06:31:42.369Z,1001.41
2017-03-20T06:32:23.010Z,1001.39
2017-03-20T06:33:03.761Z,1001.41
2017-03-20T06:33:44.352Z,1001.44
2017-03-20T06:34:24.964Z,1001.47
2017-03-20T06:35:05.619Z,1001.46
2017-03-20T06:35:46.183Z,1001.51
2017-03-20T06:36:26.770Z,1001.49
2017-03-20T06:37:07.358Z,1001.46
2017-03-20T06:37:48.024Z,1001.51
2017-03-20T06:38:28.612Z,1001.5
2017-03-20T06:39:09.283Z,1001.55
2017-03-20T06:39:49.886Z,1001.64
2017-03-20T06:40:30.533Z,1001.61
2017-03-20T06:41:11.189Z,1001.61
2017-03-20T06:41:51.835Z,1001.63
2017-03-20T06:42:32.495Z,1001.64
2017-03-20T06:43:13.144Z,1001.65
2017-03-20T06:43:53.808Z,1001.63
2017-03-20T06:44:34.450Z,1001.63
2017-03-20T06:45:15.031Z,1001.63
2017-03-20T06:45:55.654Z,1001.66
2017-03-20T06:46:36.310Z,1001.63
2017-03-20T06:47:16.874Z,1001.66
2017-03-20T06:47:57.515Z,1001.65
2017-03-20T06:48:38.163Z,1001.64
2017-03-20T06:49:18.753Z,1001.72
2017-03-20T06:49:59.365Z,1001.64
2017-03-20T06:50:40.018Z,1001.66
2017-03-20T06:51:20.677Z,1001.66
2017-03-20T06:52:01.326Z,1001.65
2017-03-20T06:52:41.977Z,1001.63
2017-03-20T06:53:22.631Z,1001.69
2017-03-20T06:54:03.284Z,1001.62
2017-03-20T06:54:43.937Z,1001.63
2017-03-20T06:55:24.541Z,1001.63
2017-03-20T06:56:05.141Z,1001.56
2017-03-20T06:56:46.826Z,1001.6
2017-03-20T06:57:27.394Z,1001.57
2017-03-20T06:58:08.023Z,1001.53
2017-03-20T06:58:48.677Z,1001.53
2017-03-20T06:59:29.243Z,1001.53
2017-03-20T07:00:09.876Z,1001.52
2017-03-20T07:00:50.529Z,1001.53
2017-03-20T07:01:31.189Z,1001.51
2017-03-20T07:02:11.834Z,1001.51
2017-03-20T07:02:52.488Z,1001.51
2017-03-20T07:03:33.141Z,1001.5
2017-03-20T07:04:13.794Z,1001.49
2017-03-20T07:04:54.447Z,1001.5
2017-03-20T07:05:35.004Z,1001.54
2017-03-20T07:06:20.223Z,1001.49
2017-03-20T07:07:00.806Z,1001.48
2017-03-20T07:07:41.466Z,1001.47
2017-03-20T07:08:22.042Z,1001.52
2017-03-20T07:09:02.630Z,1001.46
2017-03-20T07:09:43.225Z,1001.46
2017-03-20T07:10:23.867Z,1001.49
2017-03-20T07:11:04.448Z,1001.46
2017-03-20T07:11:45.124Z,1001.49
2017-03-20T07:12:25.732Z,1001.45
2017-03-20T07:13:06.383Z,1001.48
2017-03-20T07:13:46.955Z,1001.48
2017-03-20T07:14:27.549Z,1001.46
2017-03-20T07:15:08.146Z,1001.49
2017-03-20T07:15:48.786Z,1001.53
2017-03-20T07:16:29.354Z,1001.47
2017-03-20T07:17:09.957Z,1001.48
2017-03-20T07:17:50.540Z,1001.53
2017-03-20T07:18:31.194Z,1001.5
2017-03-20T07:19:11.763Z,1001.49
2017-03-20T07:19:52.344Z,1001.5
2017-03-20T07:20:32.957Z,1001.52
2017-03-20T07:21:13.612Z,1001.47
2017-03-20T07:21:54.285Z,1001.51
2017-03-20T07:22:34.907Z,1001.48
2017-03-20T07:23:15.599Z,1001.52
2017-03-20T07:23:56.225Z,1001.53
2017-03-20T07:24:36.875Z,1001.54
2017-03-20T07:25:17.529Z,1001.51
2017-03-20T07:25:58.176Z,1001.53
2017-03-20T07:26:38.835Z,1001.51
2017-03-20T07:27:19.502Z,1001.5
2017-03-20T07:28:00.142Z,1001.49
2017-03-20T07:28:40.781Z,1001.51
2017-03-20T07:29:21.449Z,1001.52
2017-03-20T07:30:02.096Z,1001.53
2017-03-20T07:30:42.768Z,1001.49
2017-03-20T07:31:23.391Z,1001.51
2017-03-20T07:32:04.045Z,1001.49
2017-03-20T07:32:44.701Z,1001.53
2017-03-20T07:33:25.356Z,1001.51
2017-03-20T07:34:06.011Z,1001.48
2017-03-20T07:34:46.666Z,1001.49
2017-03-20T07:35:27.238Z,1001.47
2017-03-20T07:36:07.869Z,1001.5
2017-03-20T07:36:48.523Z,1001.44
2017-03-20T07:37:29.100Z,1001.44
2017-03-20T07:38:09.737Z,1001.46
2017-03-20T07:38:50.377Z,1001.46
2017-03-20T07:39:30.942Z,1001.51
2017-03-20T07:40:12.622Z,1001.51
2017-03-20T07:40:54.273Z,1001.5
2017-03-20T07:41:34.934Z,1001.46
2017-03-20T07:42:15.586Z,1001.49
2017-03-20T07:42:56.236Z,1001.48
2017-03-20T07:43:36.891Z,1001.47
2017-03-20T07:44:17.543Z,1001.49
2017-03-20T07:44:58.197Z,1001.48
2017-03-20T07:45:38.787Z,1001.44
2017-03-20T07:46:19.475Z,1001.41
2017-03-20T07:47:00.060Z,1001.44
2017-03-20T07:47:40.707Z,1001.46
2017-03-20T07:48:21.298Z,1001.46
2017-03-20T07:49:01.951Z,1001.49
2017-03-20T07:49:42.567Z,1001.44
2017-03-20T07:50:23.214Z,1001.48
2017-03-20T07:51:03.783Z,1001.47
2017-03-20T07:51:44.437Z,1001.47
2017-03-20T07:52:25.073Z,1001.43
2017-03-20T07:53:05.650Z,1001.46
2017-03-20T07:53:46.293Z,1001.46
2017-03-20T07:54:26.931Z,1001.45
2017-03-20T07:55:07.504Z,1001.4
2017-03-20T07:55:48.137Z,1001.46
2017-03-20T07:56:28.790Z,1001.44
2017-03-20T07:57:09.557Z,1001.49
2017-03-20T07:57:50.204Z,1001.47
2017-03-20T07:58:30.844Z,1001.41
2017-03-20T08:00:44.115Z,1001.42
2017-03-20T08:01:24.722Z,1001.41
2017-03-20T08:02:05.303Z,1001.4
2017-03-20T08:02:45.979Z,1001.42
2017-03-20T08:03:26.583Z,1001.37
2017-03-20T08:04:07.233Z,1001.36
2017-03-20T08:04:47.806Z,1001.36
2017-03-20T08:05:28.493Z,1001.39
2017-03-20T08:06:09.092Z,1001.35
2017-03-20T08:06:49.669Z,1001.46
2017-03-20T08:07:30.287Z,1001.42
2017-03-20T08:08:10.947Z,1001.34
2017-03-20T08:08:51.506Z,1001.29
2017-03-20T08:09:33.188Z,1001.36
2017-03-20T08:10:13.826Z,1001.42
2017-03-20T08:10:54.392Z,1001.36
2017-03-20T08:11:35.030Z,1001.3
2017-03-20T08:12:15.702Z,1001.31
2017-03-20T08:12:56.338Z,1001.32
2017-03-20T08:13:37.044Z,1001.33
2017-03-20T08:14:17.640Z,1001.36
2017-03-20T08:14:58.292Z,1001.36
2017-03-20T08:15:38.950Z,1001.32
2017-03-20T08:16:19.599Z,1001.42
2017-03-20T08:17:00.258Z,1001.4